KDPA/DPA METAR and TAF weather

Enter ICAO airport designator
Station Type Date Time Source
KDPA METAR 2022/10/01 07:52 UTC NOAA

KDPA 010752Z 35003KT 7SM CLR 07/06 A3018 RMK AO2 SLP220 T00720056


Station Type Date Time Source
KDPA Decoded METAR 2022/10/01 07:52 UTC NOAA

CHICAGO/WEST CH DUPAGE, IL, United States (KDPA) 41-54N 88-15W 230M
Oct 01, 2022 - 03:52 AM EDT / 2022.10.01 0752 UTC
Wind: from the N (350 degrees) at 3 MPH (3 KT):0
Visibility: 7 mile(s):0
Sky conditions: clear
Temperature: 45.0 F (7.2 C)
Dew Point: 42.1 F (5.6 C)
Relative Humidity: 89%
Pressure (altimeter): 30.18 in. Hg (1022 hPa)
ob: KDPA 010752Z 35003KT 7SM CLR 07/06 A3018 RMK AO2 SLP220 T00720056
cycle: 8

Station Type Date Time Source
KDPA TAF 2022/10/01 06:22 UTC NOAA

TAF KDPA 010520Z 0106/0206 06003KT P6SM SKC
FM011600 04009KT P6SM FEW250

Example: see airport list